createdAt,value
2023-02-15T00:01:47.902Z,146.70
2023-02-15T00:04:16.053Z,192.85
2023-02-15T00:06:43.187Z,126.43
2023-02-15T00:09:10.928Z,106.97
2023-02-15T00:11:41.153Z,85.78
2023-02-15T00:14:09.465Z,46.28
2023-02-15T00:16:37.040Z,66.43
2023-02-15T00:19:04.547Z,75.28
2023-02-15T00:21:32.339Z,72.68
2023-02-15T00:24:00.020Z,168.77
2023-02-15T00:26:27.276Z,96.07
2023-02-15T00:28:55.298Z,63.08
2023-02-15T00:31:22.475Z,133.88
2023-02-15T00:33:49.593Z,55.33
2023-02-15T00:36:16.692Z,55.45
2023-02-15T00:38:43.803Z,66.90
2023-02-15T00:41:11.240Z,87.63
2023-02-15T00:43:38.758Z,97.60
2023-02-15T00:46:07.148Z,93.82
2023-02-15T00:48:34.427Z,80.38
2023-02-15T00:51:02.434Z,137.93
2023-02-15T00:53:30.041Z,57.33
2023-02-15T00:55:57.337Z,94.40
2023-02-15T00:58:24.541Z,105.40
2023-02-15T01:00:51.685Z,89.65
2023-02-15T01:03:19.374Z,80.15
2023-02-15T01:05:47.730Z,82.95
2023-02-15T01:08:14.817Z,52.15
2023-02-15T01:10:41.873Z,59.03
2023-02-15T01:13:09.019Z,57.67
2023-02-15T01:15:36.984Z,40.70
2023-02-15T01:18:04.102Z,58.83
2023-02-15T01:20:31.645Z,50.55
2023-02-15T01:22:58.751Z,50.50
2023-02-15T01:25:25.871Z,51.47
2023-02-15T01:27:52.941Z,35.80
2023-02-15T01:30:20.041Z,31.85
2023-02-15T01:32:47.110Z,38.17
2023-02-15T01:35:14.130Z,71.40
2023-02-15T01:37:41.153Z,48.50
2023-02-15T01:40:09.673Z,39.50
2023-02-15T01:42:36.733Z,50.70
2023-02-15T01:45:05.332Z,45.95
2023-02-15T01:47:38.513Z,41.33
2023-02-15T01:52:46.165Z,36.88
2023-02-15T01:55:13.629Z,36.95
2023-02-15T01:57:41.254Z,48.33
2023-02-15T02:00:08.811Z,48.17
2023-02-15T02:02:35.859Z,31.38
2023-02-15T02:05:07.146Z,38.97
2023-02-15T02:07:39.869Z,41.05
2023-02-15T02:10:07.708Z,42.30
2023-02-15T02:12:36.253Z,46.00
2023-02-15T02:15:03.432Z,35.33
2023-02-15T02:17:49.188Z,35.13
2023-02-15T02:20:21.711Z,35.60
2023-02-15T02:23:07.543Z,50.08
2023-02-15T02:25:46.833Z,33.47
2023-02-15T02:28:16.599Z,41.63
2023-02-15T02:31:10.004Z,50.92
2023-02-15T02:34:00.251Z,33.40
2023-02-15T02:36:37.211Z,32.35
2023-02-15T02:39:04.207Z,50.15
2023-02-15T02:41:39.820Z,46.85
2023-02-15T02:44:11.085Z,88.00
2023-02-15T02:46:47.719Z,64.43
2023-02-15T02:49:14.829Z,95.00
2023-02-15T02:51:42.026Z,63.28
2023-02-15T02:54:09.089Z,35.28
2023-02-15T02:56:42.589Z,49.55
2023-02-15T02:59:14.383Z,84.80
2023-02-15T03:01:45.428Z,36.08
2023-02-15T03:04:16.145Z,112.78
2023-02-15T03:06:53.596Z,86.55
2023-02-15T03:09:25.960Z,46.72
2023-02-15T03:11:53.115Z,81.95
2023-02-15T03:14:20.921Z,141.85
2023-02-15T03:16:49.486Z,87.72
2023-02-15T03:19:18.949Z,80.35
2023-02-15T03:21:50.423Z,65.10
2023-02-15T03:24:22.575Z,58.65
2023-02-15T03:26:52.434Z,49.00
2023-02-15T03:29:21.223Z,62.03
2023-02-15T03:31:50.608Z,56.65
2023-02-15T03:34:18.862Z,58.00
2023-02-15T03:37:08.141Z,89.93
2023-02-15T03:39:37.515Z,86.80
2023-02-15T03:42:19.357Z,34.08
2023-02-15T03:45:04.996Z,52.70
2023-02-15T03:47:34.611Z,68.60
2023-02-15T03:50:30.326Z,51.90
2023-02-15T03:52:58.975Z,89.88
2023-02-15T03:55:26.116Z,79.50
2023-02-15T03:58:12.673Z,121.93
2023-02-15T04:01:02.057Z,41.58
2023-02-15T04:03:41.058Z,90.47
2023-02-15T04:06:08.549Z,79.38
2023-02-15T04:08:54.546Z,100.85
2023-02-15T04:11:21.564Z,51.85
2023-02-15T04:13:48.557Z,53.10
2023-02-15T04:16:15.601Z,81.88
2023-02-15T04:19:02.643Z,93.40
2023-02-15T04:21:49.674Z,57.05
2023-02-15T04:24:35.554Z,42.33
2023-02-15T04:27:04.119Z,36.05
2023-02-15T04:29:31.477Z,46.83
2023-02-15T04:31:59.373Z,41.75
2023-02-15T04:34:26.957Z,60.97
2023-02-15T04:36:54.005Z,58.67
2023-02-15T04:39:21.031Z,47.55
2023-02-15T04:41:48.832Z,37.28
2023-02-15T04:44:15.963Z,89.57
2023-02-15T04:46:42.967Z,54.60
2023-02-15T04:49:10.371Z,68.78
2023-02-15T04:51:37.444Z,72.32
2023-02-15T04:54:04.496Z,57.08
2023-02-15T04:56:32.140Z,85.10
2023-02-15T04:58:59.239Z,76.43
2023-02-15T05:01:26.363Z,33.75
2023-02-15T05:03:53.550Z,43.35
2023-02-15T05:06:20.573Z,75.82
2023-02-15T05:08:47.592Z,49.72
2023-02-15T05:11:14.682Z,34.78
2023-02-15T05:13:41.859Z,51.22
2023-02-15T05:16:08.896Z,64.28
2023-02-15T05:18:35.939Z,58.03
2023-02-15T05:21:02.988Z,43.70
2023-02-15T05:23:30.088Z,60.72
2023-02-15T05:26:17.524Z,66.10
2023-02-15T05:28:44.686Z,65.88
2023-02-15T05:31:13.445Z,46.00
2023-02-15T05:33:41.021Z,28.67
2023-02-15T05:36:08.782Z,57.28
2023-02-15T05:38:38.297Z,32.90
2023-02-15T05:41:05.794Z,55.78
2023-02-15T05:43:33.239Z,52.47
2023-02-15T05:46:00.569Z,30.58
2023-02-15T05:48:28.305Z,40.78
2023-02-15T05:51:02.507Z,52.42
2023-02-15T05:53:29.989Z,52.15
2023-02-15T05:56:00.446Z,32.67
2023-02-15T05:58:28.375Z,87.85
2023-02-15T06:00:55.431Z,39.13
2023-02-15T06:03:22.867Z,36.50
2023-02-15T06:05:50.307Z,36.90
2023-02-15T06:08:17.360Z,33.65
2023-02-15T06:10:44.399Z,78.80
2023-02-15T06:13:11.650Z,61.08
2023-02-15T06:15:38.949Z,40.42
2023-02-15T06:18:06.030Z,34.15
2023-02-15T06:20:33.366Z,51.90
2023-02-15T06:23:00.432Z,106.63
2023-02-15T06:25:27.514Z,59.78
2023-02-15T06:27:54.549Z,58.97
2023-02-15T06:30:21.704Z,80.35
2023-02-15T06:32:49.101Z,53.65
2023-02-15T06:35:16.176Z,59.28
2023-02-15T06:37:43.249Z,36.55
2023-02-15T06:40:10.463Z,50.92
2023-02-15T06:42:37.525Z,47.38
2023-02-15T06:45:05.754Z,56.97
2023-02-15T06:47:33.544Z,38.92
2023-02-15T06:50:00.648Z,76.05
2023-02-15T06:52:27.988Z,42.75
2023-02-15T06:54:55.027Z,61.88
2023-02-15T06:57:22.033Z,55.65
2023-02-15T06:59:49.075Z,70.30
2023-02-15T07:02:16.222Z,37.92
2023-02-15T07:04:43.284Z,54.00
2023-02-15T07:07:11.360Z,53.60
2023-02-15T07:09:38.491Z,37.15
2023-02-15T07:12:28.631Z,42.45
2023-02-15T07:14:55.694Z,40.88
2023-02-15T07:17:38.236Z,52.63
2023-02-15T07:20:06.246Z,40.60
2023-02-15T07:22:35.041Z,37.45
2023-02-15T07:25:02.250Z,32.28
2023-02-15T07:27:29.322Z,34.97
2023-02-15T07:29:56.422Z,33.85
2023-02-15T07:32:23.468Z,36.92
2023-02-15T07:34:50.499Z,32.80
2023-02-15T07:37:17.503Z,34.47
2023-02-15T07:39:44.528Z,34.38
2023-02-15T07:42:11.567Z,33.47
2023-02-15T07:44:38.675Z,32.25
2023-02-15T07:47:05.948Z,37.50
2023-02-15T07:49:33.021Z,30.80
2023-02-15T07:52:01.866Z,31.13
2023-02-15T07:54:29.050Z,29.48
2023-02-15T07:56:56.080Z,29.25
2023-02-15T07:59:23.159Z,30.45
2023-02-15T08:01:50.183Z,29.52
2023-02-15T08:04:18.857Z,31.40
2023-02-15T08:06:45.945Z,31.58
2023-02-15T08:09:13.245Z,32.35
2023-02-15T08:11:41.712Z,31.25
2023-02-15T08:14:08.789Z,29.55
2023-02-15T08:16:39.054Z,32.65
2023-02-15T08:19:13.829Z,29.25
2023-02-15T08:21:42.101Z,34.35
2023-02-15T08:24:09.745Z,30.77
2023-02-15T08:26:37.101Z,29.73
2023-02-15T08:29:04.884Z,29.65
2023-02-15T08:31:31.961Z,30.77
2023-02-15T08:33:59.402Z,28.45
2023-02-15T08:36:29.536Z,28.30
2023-02-15T08:38:58.930Z,27.83
2023-02-15T08:41:32.821Z,32.13
2023-02-15T08:44:01.456Z,28.58
2023-02-15T08:46:29.871Z,27.63
2023-02-15T08:48:57.308Z,30.55
2023-02-15T08:51:25.386Z,30.75
2023-02-15T08:53:53.905Z,28.42
2023-02-15T08:56:23.138Z,29.80
2023-02-15T08:58:50.201Z,28.98
2023-02-15T09:01:22.419Z,28.02
2023-02-15T09:03:54.347Z,31.45
2023-02-15T09:06:22.085Z,31.17
2023-02-15T09:08:49.387Z,27.85
2023-02-15T09:11:28.537Z,26.60
2023-02-15T09:13:56.803Z,33.85
2023-02-15T09:16:24.927Z,29.70
2023-02-15T09:18:52.752Z,25.48
2023-02-15T09:21:21.574Z,30.88
2023-02-15T09:23:49.711Z,31.63
2023-02-15T09:26:21.367Z,34.20
2023-02-15T09:28:50.245Z,31.95
2023-02-15T09:31:18.906Z,28.40
2023-02-15T09:33:47.156Z,31.23
2023-02-15T09:36:22.476Z,30.48
2023-02-15T09:38:54.152Z,29.23
2023-02-15T09:41:30.107Z,29.33
2023-02-15T09:44:08.649Z,28.67
2023-02-15T09:47:00.116Z,34.33
2023-02-15T09:49:34.835Z,32.50
2023-02-15T09:52:10.849Z,33.80
2023-02-15T09:54:43.739Z,27.67
2023-02-15T09:57:22.249Z,27.45
2023-02-15T10:00:17.708Z,30.20
2023-02-15T10:02:50.847Z,33.55
2023-02-15T10:05:40.878Z,27.17
2023-02-15T10:08:14.048Z,32.10
2023-02-15T10:10:50.200Z,30.88
2023-02-15T10:13:43.415Z,29.83
2023-02-15T10:16:28.451Z,28.92
2023-02-15T10:19:01.814Z,27.95
2023-02-15T10:22:01.298Z,40.75
2023-02-15T10:24:56.278Z,29.67
2023-02-15T10:27:23.565Z,31.02
2023-02-15T10:30:05.866Z,30.17
2023-02-15T10:32:37.855Z,30.95
2023-02-15T10:35:23.463Z,30.75
2023-02-15T10:37:59.577Z,33.28
2023-02-15T10:40:26.606Z,32.95
2023-02-15T10:43:16.777Z,35.20
2023-02-15T10:45:47.903Z,27.88
2023-02-15T10:48:20.415Z,33.45
2023-02-15T10:50:49.487Z,31.48
2023-02-15T10:53:19.404Z,32.92
2023-02-15T10:55:49.216Z,32.67
2023-02-15T10:58:16.390Z,35.08
2023-02-15T11:00:45.437Z,38.50
2023-02-15T11:03:31.028Z,30.40
2023-02-15T11:06:07.294Z,30.80
2023-02-15T11:08:37.312Z,33.35
2023-02-15T11:11:07.787Z,31.60
2023-02-15T11:13:36.941Z,31.20
2023-02-15T11:16:18.668Z,30.58
2023-02-15T11:18:52.073Z,34.80
2023-02-15T11:21:24.006Z,35.55
2023-02-15T11:23:52.947Z,34.65
2023-02-15T11:26:23.087Z,34.13
2023-02-15T11:28:52.796Z,31.92
2023-02-15T11:31:24.403Z,35.55
2023-02-15T11:33:54.170Z,33.00
2023-02-15T11:36:26.055Z,37.13
2023-02-15T11:38:56.624Z,33.25
2023-02-15T11:41:26.523Z,36.53
2023-02-15T11:43:58.132Z,29.95
2023-02-15T11:46:25.367Z,35.50
2023-02-15T11:48:52.535Z,33.95
2023-02-15T11:51:22.711Z,37.05
2023-02-15T11:53:51.302Z,34.70
2023-02-15T11:56:19.534Z,36.08
2023-02-15T11:58:49.201Z,39.33
2023-02-15T12:01:22.271Z,34.83
2023-02-15T12:03:51.858Z,27.85
2023-02-15T12:06:35.144Z,34.35
2023-02-15T12:09:17.560Z,33.73
2023-02-15T12:11:44.724Z,35.25
2023-02-15T12:14:12.804Z,35.85
2023-02-15T12:16:50.259Z,35.60
2023-02-15T12:19:30.487Z,34.35
2023-02-15T12:21:57.880Z,37.15
2023-02-15T12:24:45.169Z,36.38
2023-02-15T12:27:19.932Z,33.88
2023-02-15T12:29:51.929Z,32.60
2023-02-15T12:32:20.679Z,35.08
2023-02-15T12:34:48.123Z,34.38
2023-02-15T12:37:19.620Z,33.80
2023-02-15T12:39:54.194Z,35.25
2023-02-15T12:42:22.569Z,35.35
2023-02-15T12:45:00.418Z,38.17
2023-02-15T12:47:29.384Z,33.25
2023-02-15T12:50:19.580Z,40.38
2023-02-15T12:52:50.665Z,47.70
2023-02-15T12:55:22.560Z,35.40
2023-02-15T12:57:51.358Z,32.17
2023-02-15T13:00:21.875Z,38.50
2023-02-15T13:02:49.909Z,37.85
2023-02-15T13:05:24.512Z,37.53
2023-02-15T13:07:52.701Z,34.30
2023-02-15T13:10:29.274Z,33.53
2023-02-15T13:12:58.648Z,34.50
2023-02-15T13:15:27.216Z,35.13
2023-02-15T13:17:54.345Z,39.38
2023-02-15T13:20:25.469Z,32.13
2023-02-15T13:22:54.015Z,44.75
2023-02-15T13:25:21.061Z,31.95
2023-02-15T13:27:50.114Z,37.20
2023-02-15T13:30:27.040Z,39.35
2023-02-15T13:32:57.635Z,29.38
2023-02-15T13:35:25.012Z,33.35
2023-02-15T13:38:10.887Z,28.90
2023-02-15T13:40:47.052Z,30.50
2023-02-15T13:43:14.100Z,30.05
2023-02-15T13:45:47.554Z,26.23
2023-02-15T13:48:29.423Z,30.17
2023-02-15T13:51:10.325Z,34.25
2023-02-15T13:53:43.474Z,33.35
2023-02-15T13:56:25.868Z,30.60
2023-02-15T13:58:59.807Z,34.17
2023-02-15T14:04:14.470Z,27.85
2023-02-15T14:06:47.620Z,32.70
2023-02-15T14:09:33.550Z,34.73
2023-02-15T14:12:00.564Z,26.55
2023-02-15T14:14:46.197Z,27.77
2023-02-15T14:17:13.362Z,29.52
2023-02-15T14:19:45.679Z,30.13
2023-02-15T14:22:20.460Z,31.90
2023-02-15T14:24:52.405Z,24.65
2023-02-15T14:27:35.195Z,29.45
2023-02-15T14:30:04.283Z,24.45
2023-02-15T14:32:37.337Z,28.63
2023-02-15T14:35:06.911Z,27.75
2023-02-15T14:37:33.961Z,33.42
2023-02-15T14:40:26.269Z,26.05
2023-02-15T14:42:57.524Z,22.80
2023-02-15T14:45:43.784Z,27.83
2023-02-15T14:48:14.062Z,27.95
2023-02-15T14:50:44.069Z,22.52
2023-02-15T14:53:34.236Z,21.35
2023-02-15T14:56:10.217Z,23.67
2023-02-15T14:58:38.019Z,23.45
2023-02-15T15:01:09.343Z,27.65
2023-02-15T15:03:37.116Z,28.80
2023-02-15T15:06:06.323Z,26.40
2023-02-15T15:08:35.999Z,27.70
2023-02-15T15:11:42.561Z,27.42
2023-02-15T15:14:11.140Z,25.80
2023-02-15T15:16:38.263Z,28.38
2023-02-15T15:19:07.208Z,24.77
2023-02-15T15:21:53.322Z,24.42
2023-02-15T15:24:39.061Z,31.70
2023-02-15T15:27:24.934Z,24.70
2023-02-15T15:29:52.009Z,32.65
2023-02-15T15:32:27.811Z,24.98
2023-02-15T15:35:15.374Z,24.60
2023-02-15T15:38:00.348Z,29.55
2023-02-15T15:40:43.119Z,27.17
2023-02-15T15:43:31.312Z,29.25
2023-02-15T15:45:58.419Z,30.15
2023-02-15T15:48:34.293Z,30.50
2023-02-15T15:51:03.182Z,25.92
2023-02-15T15:53:33.577Z,29.88
2023-02-15T15:56:05.285Z,24.58
2023-02-15T15:58:32.726Z,26.73
2023-02-15T16:01:12.385Z,30.50
2023-02-15T16:03:39.836Z,33.58
2023-02-15T16:06:07.517Z,30.25
2023-02-15T16:08:35.960Z,27.65
2023-02-15T16:11:15.417Z,29.95
2023-02-15T16:13:43.207Z,33.53
2023-02-15T16:16:11.041Z,30.42
2023-02-15T16:18:45.519Z,28.60
2023-02-15T16:21:19.366Z,31.85
2023-02-15T16:24:00.375Z,30.25
2023-02-15T16:26:42.570Z,34.65
2023-02-15T16:29:20.077Z,32.25
2023-02-15T16:32:01.195Z,33.40
2023-02-15T16:34:29.102Z,33.60
2023-02-15T16:37:14.761Z,37.40
2023-02-15T16:39:42.387Z,33.85
2023-02-15T16:42:10.017Z,40.60
2023-02-15T16:44:37.078Z,42.33
2023-02-15T16:47:04.255Z,40.28
2023-02-15T16:49:33.096Z,39.25
2023-02-15T16:52:06.756Z,38.40
2023-02-15T16:54:35.694Z,40.90
2023-02-15T16:57:03.216Z,45.42
2023-02-15T16:59:40.718Z,45.03
2023-02-15T17:02:14.410Z,47.17
2023-02-15T17:07:16.848Z,50.38
2023-02-15T17:09:54.529Z,51.25
2023-02-15T17:12:40.345Z,46.08
2023-02-15T17:15:25.546Z,44.58
2023-02-15T17:17:52.575Z,49.17
2023-02-15T17:20:20.589Z,50.78
2023-02-15T17:22:47.719Z,53.75
2023-02-15T17:25:22.031Z,51.85
2023-02-15T17:27:52.556Z,51.75
2023-02-15T17:30:24.961Z,49.75
2023-02-15T17:32:56.211Z,52.78
2023-02-15T17:35:25.650Z,54.65
2023-02-15T17:38:01.827Z,53.03
2023-02-15T17:40:33.473Z,56.58
2023-02-15T17:43:01.448Z,53.63
2023-02-15T17:45:39.630Z,57.80
2023-02-15T17:48:07.087Z,52.53
2023-02-15T17:50:34.747Z,54.55
2023-02-15T17:53:02.108Z,53.17
2023-02-15T17:55:35.359Z,54.42
2023-02-15T17:58:03.174Z,60.72
2023-02-15T18:00:50.624Z,56.42
2023-02-15T18:03:36.978Z,56.90
2023-02-15T18:06:23.280Z,56.28
2023-02-15T18:09:11.588Z,63.72
2023-02-15T18:11:39.882Z,54.72
2023-02-15T18:14:10.560Z,59.85
2023-02-15T18:16:43.091Z,66.72
2023-02-15T18:19:14.167Z,72.72
2023-02-15T18:21:41.514Z,59.97
2023-02-15T18:24:15.165Z,58.30
2023-02-15T18:26:42.403Z,70.13
2023-02-15T18:29:09.379Z,61.20
2023-02-15T18:31:36.503Z,70.70
2023-02-15T18:34:03.928Z,67.53
2023-02-15T18:36:32.649Z,72.63
2023-02-15T18:39:03.797Z,80.97
2023-02-15T18:41:32.887Z,79.28
2023-02-15T18:43:59.876Z,124.75
2023-02-15T18:46:26.908Z,124.82
2023-02-15T18:48:54.028Z,125.65
2023-02-15T18:51:22.812Z,134.70
2023-02-15T18:53:51.709Z,80.68
2023-02-15T18:56:19.699Z,68.10
2023-02-15T18:58:47.733Z,71.20
2023-02-15T19:01:16.772Z,79.95
2023-02-15T19:03:47.680Z,70.90
2023-02-15T19:06:15.925Z,80.55
2023-02-15T19:08:44.129Z,80.10
2023-02-15T19:11:23.027Z,115.38
2023-02-15T19:13:51.076Z,79.18
2023-02-15T19:16:24.284Z,69.40
2023-02-15T19:18:51.369Z,109.53
2023-02-15T19:21:18.593Z,74.13
2023-02-15T19:23:49.538Z,83.05
2023-02-15T19:26:16.563Z,74.57
2023-02-15T19:28:43.668Z,97.00
2023-02-15T19:31:13.900Z,133.25
2023-02-15T19:33:40.952Z,163.15
2023-02-15T19:36:17.361Z,98.80
2023-02-15T19:38:46.640Z,137.27
2023-02-15T19:41:17.609Z,221.52
2023-02-15T19:43:46.575Z,133.82
2023-02-15T19:46:19.013Z,161.68
2023-02-15T19:48:46.702Z,189.77
2023-02-15T19:51:14.238Z,155.13
2023-02-15T19:53:41.456Z,130.68
2023-02-15T19:56:18.524Z,124.47
2023-02-15T19:58:45.583Z,105.20
2023-02-15T20:01:12.804Z,102.38
2023-02-15T20:03:39.885Z,92.43
2023-02-15T20:06:07.260Z,142.93
2023-02-15T20:08:34.396Z,96.25
2023-02-15T20:11:01.726Z,153.07
2023-02-15T20:13:29.051Z,132.65
2023-02-15T20:15:56.133Z,137.75
2023-02-15T20:18:23.231Z,173.60
2023-02-15T20:20:51.483Z,96.60
2023-02-15T20:23:19.707Z,130.25
2023-02-15T20:25:47.001Z,212.75
2023-02-15T20:28:24.186Z,75.78
2023-02-15T20:30:51.484Z,88.13
2023-02-15T20:33:19.537Z,282.65
2023-02-15T20:35:46.717Z,179.52
2023-02-15T20:38:25.362Z,101.97
2023-02-15T20:41:11.769Z,133.38
2023-02-15T20:43:38.925Z,137.75
2023-02-15T20:46:06.898Z,131.20
2023-02-15T20:48:34.246Z,129.40
2023-02-15T20:51:01.765Z,96.90
2023-02-15T20:53:29.575Z,87.32
2023-02-15T20:55:56.612Z,115.07
2023-02-15T20:58:28.403Z,75.47
2023-02-15T21:00:56.468Z,168.75
2023-02-15T21:03:26.476Z,122.72
2023-02-15T21:05:53.540Z,126.93
2023-02-15T21:08:21.789Z,63.50
2023-02-15T21:10:49.922Z,101.68
2023-02-15T21:13:27.913Z,90.93
2023-02-15T21:15:55.666Z,82.80
2023-02-15T21:18:23.710Z,107.93
2023-02-15T21:20:52.362Z,111.53
2023-02-15T21:23:21.284Z,108.85
2023-02-15T21:25:48.366Z,93.10
2023-02-15T21:28:22.958Z,84.40
2023-02-15T21:30:50.528Z,78.72
2023-02-15T21:33:17.804Z,71.03
2023-02-15T21:35:47.007Z,155.32
2023-02-15T21:38:15.624Z,97.88
2023-02-15T21:40:43.079Z,82.65
2023-02-15T21:43:36.236Z,116.38
2023-02-15T21:46:30.313Z,164.65
2023-02-15T21:48:57.475Z,134.05
2023-02-15T21:51:43.135Z,95.80
2023-02-15T21:54:20.142Z,92.25
2023-02-15T21:56:48.647Z,100.07
2023-02-15T21:59:16.864Z,87.00
2023-02-15T22:01:48.976Z,76.53
2023-02-15T22:04:42.193Z,113.03
2023-02-15T22:07:14.809Z,85.22
2023-02-15T22:09:41.800Z,85.07
2023-02-15T22:12:10.540Z,93.88
2023-02-15T22:14:39.006Z,88.32
2023-02-15T22:17:24.873Z,70.25
2023-02-15T22:19:52.469Z,52.53
2023-02-15T22:22:19.517Z,51.80
2023-02-15T22:24:46.591Z,59.40
2023-02-15T22:27:27.913Z,50.55
2023-02-15T22:29:55.672Z,119.68
2023-02-15T22:32:24.127Z,58.72
2023-02-15T22:34:51.769Z,53.42
2023-02-15T22:37:18.916Z,53.38
2023-02-15T22:39:45.951Z,48.28
2023-02-15T22:42:25.120Z,57.08
2023-02-15T22:44:53.510Z,49.67
2023-02-15T22:47:21.868Z,54.20
2023-02-15T22:49:48.974Z,52.65
2023-02-15T22:52:16.355Z,49.20
2023-02-15T22:54:43.482Z,47.40
2023-02-15T22:57:22.229Z,49.10
2023-02-15T22:59:49.483Z,46.60
2023-02-15T23:02:17.971Z,45.30
2023-02-15T23:04:44.982Z,48.58
2023-02-15T23:07:15.948Z,51.75
2023-02-15T23:09:43.233Z,47.72
2023-02-15T23:12:22.236Z,44.80
2023-02-15T23:14:49.264Z,44.10
2023-02-15T23:17:16.271Z,46.95
2023-02-15T23:19:43.279Z,43.53
2023-02-15T23:22:17.231Z,46.00
2023-02-15T23:24:46.082Z,44.40
2023-02-15T23:27:38.149Z,45.60
2023-02-15T23:30:06.671Z,48.95
2023-02-15T23:32:33.822Z,47.38
2023-02-15T23:35:00.942Z,43.92
2023-02-15T23:37:28.156Z,47.53
2023-02-15T23:40:14.133Z,42.42
2023-02-15T23:42:41.226Z,47.47
2023-02-15T23:45:18.940Z,43.25
2023-02-15T23:48:04.997Z,41.72
2023-02-15T23:50:32.076Z,41.45
2023-02-15T23:53:01.188Z,41.20
2023-02-15T23:55:46.381Z,42.13
2023-02-15T23:58:18.022Z,42.58
